Time;durP1;ratioP1;P1;durP2;ratioP2;P2;SDS_P1;SDS_P2;PMS_P1;PMS_P2;Temp;Humidity;BMP_temperature;BMP_pressure;BME280_temperature;BME280_humidity;BME280_pressure;Samples;Min_cycle;Max_cycle;Signal;HPM_P1;HPM_P2
2020/12/23 00:00:54;;;;;;;10.95;3.35;;;8.50;1.00;;;;;;4984606;28;20224;-70
2020/12/23 00:03:20;;;;;;;8.23;3.13;;;8.40;1.00;;;;;;4974579;28;20833;-70
2020/12/23 00:05:47;;;;;;;7.97;3.03;;;8.50;1.00;;;;;;4980661;28;20258;-70
2020/12/23 00:08:13;;;;;;;11.35;3.08;;;8.40;1.00;;;;;;4984045;28;20236;-70
2020/12/23 00:10:40;;;;;;;8.85;2.95;;;8.50;1.00;;;;;;4980203;28;20220;-70
2020/12/23 00:13:06;;;;;;;6.90;2.95;;;8.50;1.00;;;;;;4982977;28;20717;-70
2020/12/23 00:15:32;;;;;;;6.82;2.60;;;8.50;1.00;;;;;;4980282;28;20722;-69
2020/12/23 00:17:58;;;;;;;11.20;2.83;;;8.50;1.00;;;;;;4982529;28;20259;-68
2020/12/23 00:20:24;;;;;;;8.90;2.72;;;8.60;1.00;;;;;;4983966;28;20304;-69
2020/12/23 00:22:51;;;;;;;9.13;3.05;;;8.60;1.00;;;;;;4982352;28;20682;-68
2020/12/23 00:25:18;;;;;;;9.70;2.95;;;8.70;1.00;;;;;;4982910;28;20279;-69
2020/12/23 00:27:44;;;;;;;10.68;2.55;;;8.80;1.00;;;;;;4981696;28;20240;-71
2020/12/23 00:30:10;;;;;;;6.13;2.42;;;8.70;1.00;;;;;;4981010;28;20283;-70
2020/12/23 00:32:36;;;;;;;10.98;3.10;;;8.70;1.00;;;;;;4984765;28;20228;-71
2020/12/23 00:35:03;;;;;;;7.57;2.75;;;8.70;1.00;;;;;;4985904;28;20255;-70
2020/12/23 00:37:29;;;;;;;17.30;3.55;;;8.70;1.00;;;;;;4985961;28;20228;-68
2020/12/23 00:39:56;;;;;;;9.32;2.55;;;8.70;1.00;;;;;;4981358;28;20310;-70
2020/12/23 00:42:23;;;;;;;9.90;2.38;;;8.80;1.00;;;;;;4980765;28;20311;-69
2020/12/23 00:44:49;;;;;;;7.40;3.20;;;8.80;1.00;;;;;;4980298;28;20548;-69
2020/12/23 00:47:15;;;;;;;7.00;3.13;;;8.70;1.00;;;;;;4985352;28;20235;-68
2020/12/23 00:49:41;;;;;;;9.88;2.95;;;8.70;1.00;;;;;;4988401;28;20224;-68
2020/12/23 00:52:08;;;;;;;13.95;5.53;;;8.80;1.00;;;;;;4984736;28;20302;-69
2020/12/23 00:54:35;;;;;;;12.07;3.70;;;8.80;1.00;;;;;;4983614;28;20921;-69
2020/12/23 00:57:03;;;;;;;12.23;2.85;;;8.80;1.00;;;;;;4983129;28;20220;-69
2020/12/23 00:59:29;;;;;;;7.25;2.40;;;8.80;1.00;;;;;;4979007;28;20711;-69
2020/12/23 01:01:59;;;;;;;8.75;3.95;;;8.70;1.00;;;;;;4981142;28;20233;-69
2020/12/23 01:04:26;;;;;;;8.63;2.65;;;8.80;1.00;;;;;;4983342;28;20223;-69
2020/12/23 01:06:52;;;;;;;21.88;3.42;;;8.80;1.00;;;;;;4982219;28;20868;-69
2020/12/23 01:09:19;;;;;;;10.55;3.22;;;8.80;1.00;;;;;;4979181;28;20307;-69
2020/12/23 01:11:45;;;;;;;6.95;2.78;;;8.80;1.00;;;;;;4974122;28;20235;-69
2020/12/23 01:14:12;;;;;;;9.45;2.60;;;8.80;1.00;;;;;;4983011;28;20227;-69
2020/12/23 01:16:38;;;;;;;13.30;2.65;;;8.70;1.00;;;;;;4981906;28;20223;-69
2020/12/23 01:19:04;;;;;;;8.82;2.47;;;8.70;1.00;;;;;;4984887;28;20279;-69
2020/12/23 01:21:30;;;;;;;6.32;3.05;;;8.70;1.00;;;;;;4978365;28;20917;-69
2020/12/23 01:23:57;;;;;;;7.35;2.65;;;8.70;1.00;;;;;;4985664;28;20302;-69
2020/12/23 01:26:23;;;;;;;11.35;3.65;;;8.70;1.00;;;;;;4978419;28;20240;-69
2020/12/23 01:28:49;;;;;;;10.65;3.25;;;8.70;1.00;;;;;;4980333;28;20302;-69
2020/12/23 01:31:16;;;;;;;9.27;3.40;;;8.70;1.00;;;;;;4982343;28;20303;-69
2020/12/23 01:33:43;;;;;;;8.00;3.10;;;8.70;1.00;;;;;;4980324;28;20235;-69
2020/12/23 01:36:09;;;;;;;17.08;4.22;;;8.70;1.00;;;;;;4987070;28;20227;-69
2020/12/23 01:38:35;;;;;;;15.35;3.85;;;8.70;1.00;;;;;;4992515;28;20544;-69
2020/12/23 01:41:04;;;;;;;6.82;3.15;;;8.70;1.00;;;;;;4985744;28;20607;-69
2020/12/23 01:43:31;;;;;;;6.70;3.15;;;8.70;1.00;;;;;;4982264;28;20246;-69
2020/12/23 01:45:58;;;;;;;13.05;3.22;;;8.70;1.00;;;;;;4982964;28;20234;-69
2020/12/23 01:48:28;;;;;;;9.45;2.95;;;8.70;1.00;;;;;;4979632;28;20343;-69
2020/12/23 01:50:57;;;;;;;10.00;3.20;;;8.70;1.00;;;;;;4979875;28;20235;-69
2020/12/23 01:53:25;;;;;;;12.95;3.65;;;8.70;1.00;;;;;;4983342;28;21124;-69
2020/12/23 01:55:52;;;;;;;11.25;3.55;;;8.70;1.00;;;;;;4980735;28;20729;-69
2020/12/23 01:58:18;;;;;;;9.48;3.55;;;8.60;1.00;;;;;;4986185;28;20970;-69
2020/12/23 02:00:44;;;;;;;6.88;2.95;;;8.60;1.00;;;;;;4982081;28;21024;-69
2020/12/23 02:03:12;;;;;;;7.97;2.83;;;8.60;1.00;;;;;;4989298;28;20222;-69
2020/12/23 02:05:40;;;;;;;10.15;3.17;;;8.60;1.00;;;;;;4983351;28;20282;-69
2020/12/23 02:08:07;;;;;;;15.43;4.40;;;8.60;1.00;;;;;;4983104;28;20238;-69
2020/12/23 02:10:33;;;;;;;10.02;3.38;;;8.70;1.00;;;;;;4988410;28;20235;-69
2020/12/23 02:13:00;;;;;;;8.38;3.00;;;8.70;1.00;;;;;;4983875;28;20802;-69
2020/12/23 02:15:28;;;;;;;8.95;3.53;;;8.60;1.00;;;;;;4989369;28;20231;-68
2020/12/23 02:17:55;;;;;;;10.20;3.30;;;8.60;1.00;;;;;;4994247;28;20656;-68
2020/12/23 02:20:21;;;;;;;14.82;4.97;;;8.60;1.00;;;;;;4987108;28;20233;-69
2020/12/23 02:22:48;;;;;;;7.75;2.63;;;8.60;1.00;;;;;;4989955;28;20227;-69
2020/12/23 02:25:15;;;;;;;12.63;3.72;;;8.50;1.00;;;;;;4983436;28;20608;-69
2020/12/23 02:27:42;;;;;;;12.15;3.70;;;8.50;1.00;;;;;;4987598;28;20313;-69
2020/12/23 02:30:09;;;;;;;11.45;2.78;;;8.50;1.00;;;;;;4983493;28;20318;-69
2020/12/23 02:32:36;;;;;;;9.32;3.33;;;8.50;1.00;;;;;;4979060;28;20235;-69
2020/12/23 02:35:04;;;;;;;10.43;3.50;;;8.50;1.00;;;;;;4986565;28;21040;-69
2020/12/23 02:37:30;;;;;;;17.17;4.60;;;8.50;1.00;;;;;;4986549;28;20271;-69
2020/12/23 02:39:57;;;;;;;12.43;3.53;;;8.60;1.00;;;;;;4986189;28;20299;-69
2020/12/23 02:42:24;;;;;;;8.05;3.03;;;8.60;1.00;;;;;;4985120;28;20231;-69
2020/12/23 02:44:51;;;;;;;9.57;3.03;;;8.60;1.00;;;;;;4981011;28;20299;-69
2020/12/23 02:47:19;;;;;;;11.10;3.00;;;8.60;1.00;;;;;;4983602;28;20311;-69
2020/12/23 02:49:46;;;;;;;7.93;3.33;;;8.60;1.00;;;;;;4982198;28;20300;-69
2020/12/23 02:52:13;;;;;;;14.38;3.80;;;8.60;1.00;;;;;;4981060;28;20224;-69
2020/12/23 02:54:40;;;;;;;13.90;3.90;;;8.50;1.00;;;;;;4981179;28;20732;-69
2020/12/23 02:57:08;;;;;;;7.45;3.00;;;8.50;1.00;;;;;;4981822;28;20223;-69
2020/12/23 02:59:35;;;;;;;5.57;2.47;;;8.50;1.00;;;;;;4983398;28;20227;-69
2020/12/23 03:02:01;;;;;;;10.45;3.10;;;8.50;1.00;;;;;;4986774;28;20227;-69
2020/12/23 03:04:27;;;;;;;10.63;3.38;;;8.50;1.00;;;;;;4989889;28;20322;-68
2020/12/23 03:06:54;;;;;;;9.02;4.05;;;8.40;1.00;;;;;;4988921;28;20274;-69
2020/12/23 03:09:20;;;;;;;14.27;3.55;;;8.30;1.00;;;;;;4986307;28;20242;-68
2020/12/23 03:11:47;;;;;;;11.43;3.85;;;8.30;1.00;;;;;;4985942;28;21092;-69
2020/12/23 03:14:14;;;;;;;5.82;3.22;;;8.30;1.00;;;;;;4989279;28;21058;-69
2020/12/23 03:16:41;;;;;;;8.10;4.20;;;8.30;1.00;;;;;;4989122;28;21111;-68
2020/12/23 03:19:07;;;;;;;12.15;3.80;;;8.20;1.00;;;;;;4988421;28;20235;-69
2020/12/23 03:21:33;;;;;;;6.57;3.10;;;8.10;1.00;;;;;;4986304;28;20227;-69
2020/12/23 03:23:59;;;;;;;11.32;3.58;;;8.10;1.00;;;;;;4981060;28;20235;-68
2020/12/23 03:26:26;;;;;;;7.13;3.30;;;8.10;1.00;;;;;;4981832;28;20224;-68
2020/12/23 03:28:52;;;;;;;8.23;4.13;;;8.20;1.00;;;;;;4982709;28;20234;-68
2020/12/23 03:31:19;;;;;;;9.77;4.03;;;8.20;1.00;;;;;;4978403;28;21073;-69
2020/12/23 03:33:45;;;;;;;9.70;3.03;;;8.10;1.00;;;;;;4980112;28;20663;-68
2020/12/23 03:36:12;;;;;;;13.65;3.92;;;8.20;1.00;;;;;;4986402;28;20281;-68
2020/12/23 03:38:40;;;;;;;18.67;4.57;;;8.10;1.00;;;;;;4986529;28;20326;-69
2020/12/23 03:41:06;;;;;;;12.50;3.58;;;8.20;1.00;;;;;;4981232;28;20801;-68
2020/12/23 03:43:33;;;;;;;10.43;3.60;;;8.20;1.00;;;;;;4982353;28;20223;-68
2020/12/23 03:45:59;;;;;;;5.65;3.30;;;8.20;1.00;;;;;;4991782;28;20223;-68
2020/12/23 03:48:26;;;;;;;8.48;3.28;;;8.10;1.00;;;;;;4990803;28;20342;-68
2020/12/23 03:50:53;;;;;;;8.65;3.50;;;8.10;1.00;;;;;;4986782;28;20710;-69
2020/12/23 03:53:19;;;;;;;10.30;2.80;;;8.10;1.00;;;;;;4986347;28;20270;-68
2020/12/23 03:55:46;;;;;;;13.07;4.60;;;8.20;1.00;;;;;;4985628;28;20224;-70
2020/12/23 03:58:12;;;;;;;10.70;4.40;;;8.20;1.00;;;;;;4984815;28;20326;-69
2020/12/23 04:00:38;;;;;;;9.98;3.50;;;8.10;1.00;;;;;;4983880;28;20231;-69
2020/12/23 04:03:04;;;;;;;11.70;3.17;;;8.20;1.00;;;;;;4984585;28;20230;-68
2020/12/23 04:05:31;;;;;;;9.07;3.80;;;8.30;1.00;;;;;;4984586;28;20234;-69
2020/12/23 04:07:58;;;;;;;10.07;3.30;;;8.20;1.00;;;;;;4981705;28;20240;-69
2020/12/23 04:10:24;;;;;;;14.48;3.80;;;8.30;1.00;;;;;;4985318;28;20254;-68
2020/12/23 04:12:50;;;;;;;16.33;3.88;;;8.30;1.00;;;;;;4977555;28;20232;-69
2020/12/23 04:15:16;;;;;;;18.80;4.00;;;8.30;1.00;;;;;;4985661;28;20298;-69
2020/12/23 04:17:42;;;;;;;12.23;3.88;;;8.30;1.00;;;;;;4978828;28;20331;-69
2020/12/23 04:20:09;;;;;;;9.75;3.80;;;8.30;1.00;;;;;;4984922;28;20274;-69
2020/12/23 04:22:36;;;;;;;13.30;3.97;;;8.40;1.00;;;;;;4975550;28;20228;-69
2020/12/23 04:25:05;;;;;;;8.40;3.30;;;8.40;1.00;;;;;;4977168;28;20251;-69
2020/12/23 04:27:31;;;;;;;9.68;4.10;;;8.30;1.00;;;;;;4981382;28;20243;-68
2020/12/23 04:29:58;;;;;;;8.48;3.10;;;8.30;1.00;;;;;;4978395;28;20373;-68
2020/12/23 04:32:24;;;;;;;8.10;4.35;;;8.40;1.00;;;;;;4981516;28;20517;-68
2020/12/23 04:34:50;;;;;;;8.70;3.50;;;8.40;1.00;;;;;;4975946;28;20311;-68
2020/12/23 04:37:16;;;;;;;6.47;2.55;;;8.40;1.00;;;;;;4984522;28;20232;-69
2020/12/23 04:39:43;;;;;;;20.45;5.00;;;8.40;1.00;;;;;;4980044;28;20235;-68
2020/12/23 04:42:10;;;;;;;13.35;4.32;;;8.40;1.00;;;;;;4980589;28;20748;-69
2020/12/23 04:44:36;;;;;;;10.20;3.63;;;8.30;1.00;;;;;;4983494;28;20279;-68
2020/12/23 04:47:04;;;;;;;15.70;4.78;;;8.40;1.00;;;;;;4989385;28;21127;-69
2020/12/23 04:49:36;;;;;;;6.80;3.20;;;8.50;1.00;;;;;;4986919;28;20327;-69
2020/12/23 04:52:05;;;;;;;9.63;2.75;;;8.40;1.00;;;;;;4985115;28;20221;-68
2020/12/23 04:54:32;;;;;;;9.48;2.83;;;8.40;1.00;;;;;;4978562;28;20231;-69
2020/12/23 04:56:59;;;;;;;14.45;4.25;;;8.40;1.00;;;;;;4973899;28;20306;-69
2020/12/23 04:59:27;;;;;;;12.77;2.95;;;8.40;1.00;;;;;;4980831;28;20228;-69
2020/12/23 05:01:53;;;;;;;16.10;3.65;;;8.40;1.00;;;;;;4984990;28;20705;-68
2020/12/23 05:04:19;;;;;;;6.53;2.85;;;8.40;1.00;;;;;;4985177;28;20314;-69
2020/12/23 05:06:47;;;;;;;13.15;3.65;;;8.30;1.00;;;;;;4976050;28;20254;-69
2020/12/23 05:09:14;;;;;;;7.05;3.53;;;8.20;1.00;;;;;;4980922;28;20223;-68
2020/12/23 05:11:40;;;;;;;13.55;4.53;;;8.20;1.00;;;;;;4981480;28;20235;-70
2020/12/23 05:14:10;;;;;;;9.32;2.72;;;8.30;1.00;;;;;;4981328;28;20227;-69
2020/12/23 05:16:37;;;;;;;5.22;2.13;;;8.30;1.00;;;;;;4980845;28;20230;-69
2020/12/23 05:19:04;;;;;;;4.80;2.40;;;8.20;1.00;;;;;;4981555;28;20227;-69
2020/12/23 05:21:30;;;;;;;8.40;2.70;;;8.20;1.00;;;;;;4979246;28;20991;-69
2020/12/23 05:23:58;;;;;;;19.45;3.92;;;8.20;1.00;;;;;;4974080;28;20220;-68
2020/12/23 05:26:25;;;;;;;10.38;3.60;;;8.30;1.00;;;;;;4999157;28;20286;-69
2020/12/23 05:28:53;;;;;;;15.02;3.55;;;8.40;1.00;;;;;;4986964;28;20231;-69
2020/12/23 05:31:21;;;;;;;10.55;2.97;;;8.30;1.00;;;;;;4979669;28;20310;-70
2020/12/23 05:33:49;;;;;;;14.57;4.35;;;8.30;1.00;;;;;;4982227;28;20307;-69
2020/12/23 05:36:18;;;;;;;17.63;4.50;;;8.30;1.00;;;;;;4979147;28;20223;-69
2020/12/23 05:38:45;;;;;;;8.60;3.22;;;8.30;1.00;;;;;;4986798;28;20259;-69
2020/12/23 05:41:14;;;;;;;7.78;3.13;;;8.30;1.00;;;;;;4979657;28;20341;-69
2020/12/23 05:43:40;;;;;;;11.45;3.60;;;8.40;1.00;;;;;;4980453;28;20234;-68
2020/12/23 05:46:08;;;;;;;10.10;3.10;;;8.40;1.00;;;;;;4983832;28;20263;-70
2020/12/23 05:48:37;;;;;;;9.77;3.30;;;8.20;1.00;;;;;;4992872;28;20289;-67
2020/12/23 05:51:05;;;;;;;13.48;3.40;;;8.20;1.00;;;;;;4985253;28;21134;-70
2020/12/23 05:53:34;;;;;;;15.70;4.03;;;8.20;1.00;;;;;;4979935;28;20289;-68
2020/12/23 05:56:01;;;;;;;8.40;3.00;;;8.20;1.00;;;;;;4980140;28;20242;-68
2020/12/23 05:58:29;;;;;;;13.57;3.60;;;8.20;1.00;;;;;;4977964;28;20275;-68
2020/12/23 06:00:56;;;;;;;8.10;3.25;;;8.20;1.00;;;;;;4986508;28;20239;-69
2020/12/23 06:03:29;;;;;;;11.48;2.90;;;8.20;1.00;;;;;;4980818;28;21277;-69
2020/12/23 06:05:59;;;;;;;13.98;4.72;;;8.20;1.00;;;;;;4984812;28;20258;-69
2020/12/23 06:08:31;;;;;;;18.85;3.95;;;8.20;1.00;;;;;;4978805;28;20232;-69
2020/12/23 06:11:28;;;;;;;7.03;3.30;;;8.10;1.00;;;;;;4986331;28;20262;-69
2020/12/23 06:14:17;;;;;;;13.10;4.47;;;8.10;1.00;;;;;;4980643;28;20223;-70
2020/12/23 06:16:45;;;;;;;10.55;3.35;;;8.10;1.00;;;;;;4981684;28;20710;-68
2020/12/23 06:19:20;;;;;;;8.38;2.75;;;8.10;1.00;;;;;;4983428;28;20698;-69
2020/12/23 06:21:49;;;;;;;22.95;3.60;;;8.20;1.00;;;;;;4985047;28;20277;-68
2020/12/23 06:24:18;;;;;;;15.93;3.33;;;8.10;1.00;;;;;;4985824;28;20244;-69
2020/12/23 06:26:46;;;;;;;10.07;3.20;;;8.20;1.00;;;;;;4991241;28;20234;-68
2020/12/23 06:29:14;;;;;;;18.17;7.20;;;8.20;1.00;;;;;;4992748;28;20221;-70
2020/12/23 06:31:42;;;;;;;11.27;4.05;;;8.20;1.00;;;;;;4989179;28;20236;-68
2020/12/23 06:34:14;;;;;;;12.98;3.15;;;8.20;1.00;;;;;;4992423;28;20306;-69
2020/12/23 06:36:40;;;;;;;10.65;3.30;;;8.20;1.00;;;;;;4983845;28;21739;-69
2020/12/23 06:39:31;;;;;;;8.60;3.22;;;8.30;1.00;;;;;;4986478;28;20228;-69
2020/12/23 06:42:23;;;;;;;6.43;2.90;;;8.30;1.00;;;;;;4978403;28;21007;-68
2020/12/23 06:44:58;;;;;;;11.80;4.43;;;8.30;1.00;;;;;;4983019;28;21125;-69
2020/12/23 06:47:25;;;;;;;6.05;2.40;;;8.30;1.00;;;;;;4979091;28;20241;-68
2020/12/23 06:49:53;;;;;;;9.43;3.47;;;8.30;1.00;;;;;;4985499;28;20232;-69
2020/12/23 06:52:39;;;;;;;14.48;3.63;;;8.30;1.00;;;;;;4985302;28;20250;-69
2020/12/23 06:55:08;;;;;;;14.27;3.72;;;8.30;1.00;;;;;;4984812;28;20636;-69
2020/12/23 06:57:54;;;;;;;8.10;2.70;;;8.30;1.00;;;;;;4982941;28;20238;-69
2020/12/23 07:00:39;;;;;;;8.50;3.58;;;8.20;1.00;;;;;;4979647;28;20238;-68
2020/12/23 07:03:07;;;;;;;6.78;2.70;;;8.10;1.00;;;;;;4989019;28;20347;-70
2020/12/23 07:05:39;;;;;;;8.52;3.38;;;8.10;1.00;;;;;;4990797;28;20625;-70
2020/12/23 07:08:06;;;;;;;7.20;2.35;;;8.10;1.00;;;;;;4992109;28;20267;-68
2020/12/23 07:10:35;;;;;;;11.52;3.15;;;8.10;1.00;;;;;;4980653;28;20231;-68
2020/12/23 07:13:02;;;;;;;9.40;2.97;;;8.10;1.00;;;;;;4978664;28;20232;-67
2020/12/23 07:15:31;;;;;;;12.57;3.67;;;8.10;1.00;;;;;;4986064;28;20223;-69
2020/12/23 07:18:00;;;;;;;9.20;2.50;;;8.10;1.00;;;;;;4980334;28;20327;-69
2020/12/23 07:20:29;;;;;;;9.63;3.60;;;8.10;1.00;;;;;;4979664;28;20239;-69
2020/12/23 07:22:59;;;;;;;4.88;2.85;;;8.10;1.00;;;;;;4979929;28;20246;-69
2020/12/23 07:25:26;;;;;;;12.93;3.80;;;8.10;1.00;;;;;;4984984;28;20294;-68
2020/12/23 07:27:56;;;;;;;9.43;3.08;;;8.10;1.00;;;;;;4981584;28;20236;-68
2020/12/23 07:30:22;;;;;;;9.30;3.78;;;8.10;1.00;;;;;;4984990;28;20329;-69
2020/12/23 07:32:59;;;;;;;6.55;3.58;;;8.10;1.00;;;;;;4975665;28;20228;-68
2020/12/23 07:35:26;;;;;;;13.40;3.47;;;8.10;1.00;;;;;;4981572;28;20223;-68
2020/12/23 07:37:57;;;;;;;11.60;3.45;;;8.10;1.00;;;;;;4981181;28;20769;-69
2020/12/23 07:40:24;;;;;;;6.90;2.65;;;8.10;1.00;;;;;;4982582;28;20234;-69
2020/12/23 07:42:50;;;;;;;8.95;3.35;;;8.20;1.00;;;;;;4974063;28;20434;-68
2020/12/23 07:45:19;;;;;;;12.60;4.20;;;8.10;1.00;;;;;;4973266;28;20319;-68
2020/12/23 07:47:54;;;;;;;6.95;2.80;;;8.10;1.00;;;;;;4980557;28;20275;-69
2020/12/23 07:50:21;;;;;;;12.38;3.50;;;8.10;1.00;;;;;;4977758;28;20235;-69
2020/12/23 07:52:47;;;;;;;8.32;2.63;;;8.10;1.00;;;;;;4978721;28;20773;-69
2020/12/23 07:55:14;;;;;;;10.80;3.20;;;8.20;1.00;;;;;;4974926;28;20234;-68
2020/12/23 07:57:40;;;;;;;10.57;3.70;;;8.20;1.00;;;;;;4981582;28;20231;-69
2020/12/23 08:00:08;;;;;;;10.25;2.95;;;8.20;1.00;;;;;;4978475;28;20224;-70
2020/12/23 08:02:35;;;;;;;9.05;4.00;;;8.30;1.00;;;;;;4991925;28;20231;-70
2020/12/23 08:05:02;;;;;;;9.35;3.17;;;8.30;1.00;;;;;;4975862;28;20352;-69
2020/12/23 08:07:29;;;;;;;12.43;3.30;;;8.30;1.00;;;;;;4977158;28;20275;-69
2020/12/23 08:09:55;;;;;;;11.25;4.20;;;8.30;1.00;;;;;;4978486;28;20270;-69
2020/12/23 08:12:22;;;;;;;14.27;5.07;;;8.20;1.00;;;;;;4975251;28;20227;-69
2020/12/23 08:14:48;;;;;;;12.02;3.40;;;8.30;1.00;;;;;;4979022;28;20303;-69
2020/12/23 08:17:21;;;;;;;10.63;4.80;;;8.30;1.00;;;;;;4980959;28;20240;-69
2020/12/23 08:20:01;;;;;;;15.63;4.22;;;8.40;1.00;;;;;;4973587;28;20269;-69
2020/12/23 08:22:27;;;;;;;12.00;4.45;;;8.50;1.00;;;;;;4983655;28;20230;-69
2020/12/23 08:25:01;;;;;;;7.65;3.08;;;8.40;1.00;;;;;;4981490;28;20227;-69
2020/12/23 08:27:28;;;;;;;10.18;4.13;;;8.40;1.00;;;;;;4982996;28;21137;-69
2020/12/23 08:29:54;;;;;;;12.70;4.05;;;8.40;1.00;;;;;;4984665;28;20380;-69
2020/12/23 08:32:26;;;;;;;8.98;4.13;;;8.40;1.00;;;;;;4987135;28;20327;-69
2020/12/23 08:34:54;;;;;;;12.90;4.20;;;8.40;1.00;;;;;;4986074;28;20302;-69
2020/12/23 08:37:24;;;;;;;11.35;4.22;;;8.50;1.00;;;;;;4986884;28;20997;-69
2020/12/23 08:39:54;;;;;;;12.25;4.05;;;8.50;1.00;;;;;;4987270;28;20263;-69
2020/12/23 08:42:21;;;;;;;17.92;4.47;;;8.50;1.00;;;;;;4987600;28;20310;-69
2020/12/23 08:44:50;;;;;;;20.17;9.40;;;8.60;1.00;;;;;;4988157;28;20713;-69
2020/12/23 08:47:22;;;;;;;9.32;3.22;;;8.60;1.00;;;;;;4981159;28;20741;-69
2020/12/23 08:49:48;;;;;;;9.38;4.88;;;8.70;1.00;;;;;;4980021;28;20236;-69
2020/12/23 08:52:19;;;;;;;9.98;3.55;;;8.70;1.00;;;;;;4984311;28;20226;-69
2020/12/23 08:54:48;;;;;;;13.85;4.30;;;8.80;1.00;;;;;;4990155;28;20226;-70
2020/12/23 08:57:15;;;;;;;8.88;2.83;;;8.90;1.00;;;;;;4984344;28;20961;-70
2020/12/23 08:59:42;;;;;;;10.02;2.67;;;8.70;1.00;;;;;;4974750;28;20334;-71
2020/12/23 09:02:15;;;;;;;11.50;3.50;;;8.60;1.00;;;;;;4984244;28;20262;-69
2020/12/23 09:04:42;;;;;;;9.25;3.20;;;8.60;1.00;;;;;;4979594;28;20226;-69
2020/12/23 09:07:09;;;;;;;9.10;2.83;;;8.50;1.00;;;;;;4986961;28;20322;-69
2020/12/23 09:09:36;;;;;;;13.15;3.13;;;8.40;1.00;;;;;;4982687;28;20223;-68
2020/12/23 09:12:04;;;;;;;12.18;3.38;;;8.50;1.00;;;;;;4984086;28;20279;-68
2020/12/23 09:14:33;;;;;;;11.38;3.97;;;8.60;1.00;;;;;;4984739;28;20258;-69
2020/12/23 09:17:01;;;;;;;13.38;5.20;;;8.60;1.00;;;;;;4984125;28;20263;-68
2020/12/23 09:19:50;;;;;;;6.45;2.83;;;8.60;1.00;;;;;;4984480;28;21029;-69
2020/12/23 09:22:31;;;;;;;6.90;2.70;;;8.70;1.00;;;;;;4983460;28;20919;-68
2020/12/23 09:25:22;;;;;;;8.27;2.65;;;8.70;1.00;;;;;;4986396;28;20224;-69
2020/12/23 09:27:50;;;;;;;12.73;2.90;;;8.70;1.00;;;;;;4979730;28;20286;-69
2020/12/23 09:30:32;;;;;;;14.07;3.75;;;8.60;1.00;;;;;;4977316;28;20232;-69
2020/12/23 09:32:58;;;;;;;13.25;2.70;;;8.70;1.00;;;;;;4988063;28;20291;-69
2020/12/23 09:35:27;;;;;;;8.95;3.40;;;8.70;1.00;;;;;;4978787;28;20227;-69
2020/12/23 09:38:04;;;;;;;11.00;3.40;;;8.70;1.00;;;;;;4984138;28;20224;-69
2020/12/23 09:40:32;;;;;;;4.60;2.45;;;8.70;1.00;;;;;;4983221;28;20224;-69
2020/12/23 09:42:58;;;;;;;6.68;2.55;;;8.80;1.00;;;;;;4991986;28;20988;-69
2020/12/23 09:45:24;;;;;;;10.23;3.35;;;8.80;1.00;;;;;;4987744;28;20333;-69
2020/12/23 09:47:51;;;;;;;5.53;3.15;;;8.90;1.00;;;;;;4975946;28;20711;-69
2020/12/23 09:50:17;;;;;;;14.07;3.97;;;8.80;1.00;;;;;;4979480;28;20311;-70
2020/12/23 09:52:43;;;;;;;4.97;2.20;;;8.80;1.00;;;;;;4977725;28;20223;-68
2020/12/23 09:55:09;;;;;;;17.92;3.72;;;8.90;1.00;;;;;;4979310;28;20302;-68
2020/12/23 09:57:37;;;;;;;6.80;2.95;;;8.90;1.00;;;;;;4984030;28;20220;-68
2020/12/23 10:00:05;;;;;;;10.88;3.95;;;8.90;1.00;;;;;;4979100;28;20235;-68
2020/12/23 10:02:32;;;;;;;9.05;3.67;;;9.00;1.00;;;;;;4979882;28;20227;-68
2020/12/23 10:04:58;;;;;;;8.85;3.70;;;9.00;1.00;;;;;;4976289;28;20219;-68
2020/12/23 10:07:25;;;;;;;9.57;3.08;;;9.10;1.00;;;;;;4973244;28;20899;-71
2020/12/23 10:09:51;;;;;;;9.60;3.30;;;9.10;1.00;;;;;;4972893;28;20311;-70
2020/12/23 10:12:18;;;;;;;7.57;3.33;;;9.10;1.00;;;;;;4971879;28;20228;-71
2020/12/23 10:14:45;;;;;;;10.23;3.45;;;9.10;1.00;;;;;;4974241;28;20215;-70
2020/12/23 10:17:12;;;;;;;18.25;5.45;;;9.10;1.00;;;;;;4996384;28;20239;-70
2020/12/23 10:19:38;;;;;;;15.85;3.38;;;9.10;1.00;;;;;;4991169;28;20284;-70
2020/12/23 10:22:04;;;;;;;10.80;3.75;;;9.10;1.00;;;;;;4999026;28;20228;-70
2020/12/23 10:24:30;;;;;;;8.35;2.60;;;9.00;1.00;;;;;;5005119;28;20228;-70
2020/12/23 10:26:56;;;;;;;8.98;3.17;;;9.00;1.00;;;;;;5002084;28;20227;-71
2020/12/23 10:29:23;;;;;;;7.50;3.40;;;8.80;1.00;;;;;;5005353;28;20224;-70
2020/12/23 10:31:50;;;;;;;17.20;7.95;;;8.80;1.00;;;;;;5001540;28;20259;-70
2020/12/23 10:34:18;;;;;;;8.63;4.55;;;9.00;1.00;;;;;;4995919;28;20266;-70
2020/12/23 10:36:47;;;;;;;8.20;3.38;;;9.00;1.00;;;;;;4993116;28;20760;-69
2020/12/23 10:39:13;;;;;;;7.47;3.25;;;9.10;1.00;;;;;;4992352;28;20274;-71
2020/12/23 10:41:39;;;;;;;9.23;3.03;;;9.10;1.00;;;;;;4990518;28;20321;-70
2020/12/23 10:44:06;;;;;;;8.52;3.25;;;8.90;1.00;;;;;;4993853;28;20267;-70
2020/12/23 10:46:32;;;;;;;10.80;3.00;;;8.80;1.00;;;;;;4990788;28;20322;-70
2020/12/23 10:48:59;;;;;;;6.80;2.80;;;8.70;1.00;;;;;;4991510;28;20274;-71
2020/12/23 10:51:25;;;;;;;13.02;3.75;;;8.60;1.00;;;;;;4985203;28;20254;-71
2020/12/23 10:53:51;;;;;;;10.75;4.55;;;8.70;1.00;;;;;;4994353;28;20337;-74
2020/12/23 10:56:18;;;;;;;6.03;3.53;;;8.80;1.00;;;;;;4992023;28;20238;-70
2020/12/23 10:58:44;;;;;;;6.97;3.83;;;8.90;1.00;;;;;;4989895;28;20582;-70
2020/12/23 11:01:10;;;;;;;9.55;3.80;;;9.00;1.00;;;;;;4991882;28;20268;-70
2020/12/23 11:03:36;;;;;;;11.73;4.10;;;9.00;1.00;;;;;;4988066;28;20666;-71
2020/12/23 11:06:03;;;;;;;10.55;3.72;;;9.00;1.00;;;;;;4993125;28;20224;-69
2020/12/23 11:08:30;;;;;;;5.80;3.58;;;9.10;1.00;;;;;;4985120;28;20264;-71
2020/12/23 11:10:56;;;;;;;15.77;8.60;;;9.20;1.00;;;;;;4989120;28;20239;-70
2020/12/23 11:13:22;;;;;;;9.48;4.07;;;9.20;1.00;;;;;;4990430;28;21276;-71
2020/12/23 11:15:48;;;;;;;12.00;4.75;;;9.20;1.00;;;;;;4991417;28;20231;-71
2020/12/23 11:18:15;;;;;;;9.23;3.85;;;9.10;1.00;;;;;;4981307;28;20724;-71
2020/12/23 11:20:41;;;;;;;9.95;4.25;;;9.10;1.00;;;;;;4989568;28;20489;-69
2020/12/23 11:23:08;;;;;;;10.57;4.07;;;9.20;1.00;;;;;;4993711;28;20706;-71
2020/12/23 11:25:34;;;;;;;13.75;4.53;;;9.20;1.00;;;;;;4998426;28;20315;-71
2020/12/23 11:28:00;;;;;;;7.00;4.05;;;9.20;1.00;;;;;;4999707;28;20334;-70
2020/12/23 11:30:27;;;;;;;10.98;4.18;;;9.20;1.00;;;;;;4995855;28;20246;-71
2020/12/23 11:32:53;;;;;;;10.05;3.17;;;9.10;1.00;;;;;;4997475;28;20228;-71
2020/12/23 11:35:19;;;;;;;11.23;3.95;;;9.10;1.00;;;;;;4992120;28;20314;-70
2020/12/23 11:37:45;;;;;;;6.28;3.20;;;9.10;1.00;;;;;;4991466;28;20282;-71
2020/12/23 11:40:12;;;;;;;10.68;4.20;;;9.10;1.00;;;;;;4993089;28;20236;-72
2020/12/23 11:42:42;;;;;;;10.30;4.00;;;8.90;1.00;;;;;;4988081;28;20223;-69
2020/12/23 11:45:09;;;;;;;12.88;7.60;;;8.80;1.00;;;;;;4991901;28;20223;-69
2020/12/23 11:47:36;;;;;;;11.00;4.00;;;8.80;1.00;;;;;;4990611;28;20235;-70
2020/12/23 11:50:04;;;;;;;7.88;3.10;;;8.80;1.00;;;;;;4991428;28;20239;-70
2020/12/23 11:52:30;;;;;;;9.52;4.05;;;8.80;1.00;;;;;;4992633;28;20729;-71
2020/12/23 11:54:57;;;;;;;7.03;3.90;;;8.70;1.00;;;;;;4990807;28;20294;-71
2020/12/23 11:57:24;;;;;;;8.70;3.53;;;8.80;1.00;;;;;;4989091;28;20321;-70
2020/12/23 11:59:50;;;;;;;11.45;5.45;;;8.70;1.00;;;;;;4990257;28;20251;-71
2020/12/23 12:02:16;;;;;;;10.02;3.97;;;8.80;1.00;;;;;;4998640;28;20224;-71
2020/12/23 12:04:43;;;;;;;12.95;5.43;;;8.80;1.00;;;;;;4990606;28;20359;-71
2020/12/23 12:07:10;;;;;;;8.18;3.88;;;8.70;1.00;;;;;;4998364;28;20291;-70
2020/12/23 12:09:37;;;;;;;10.35;4.15;;;8.70;1.00;;;;;;4983678;28;20216;-70
2020/12/23 12:12:03;;;;;;;15.60;7.18;;;8.70;1.00;;;;;;4989996;28;20235;-70
2020/12/23 12:14:31;;;;;;;14.75;4.20;;;8.70;1.00;;;;;;4987563;28;20228;-70
2020/12/23 12:16:57;;;;;;;12.45;4.30;;;8.80;1.00;;;;;;4986605;28;21454;-70
2020/12/23 12:19:23;;;;;;;16.25;4.65;;;8.80;1.00;;;;;;4987538;28;20306;-70
2020/12/23 12:21:50;;;;;;;8.07;4.22;;;8.80;1.00;;;;;;4987301;28;20231;-72
2020/12/23 12:24:16;;;;;;;30.88;13.38;;;8.80;1.00;;;;;;4991403;28;20255;-70
2020/12/23 12:26:42;;;;;;;14.10;6.03;;;8.80;1.00;;;;;;4988030;28;20980;-70
2020/12/23 12:29:09;;;;;;;10.07;3.90;;;8.80;1.00;;;;;;4987916;28;20239;-71
2020/12/23 12:31:36;;;;;;;9.32;3.90;;;8.90;1.00;;;;;;4987711;28;20255;-71
2020/12/23 12:34:02;;;;;;;8.98;4.40;;;8.80;1.00;;;;;;4987550;28;20303;-70
2020/12/23 12:36:28;;;;;;;9.68;4.70;;;8.80;1.00;;;;;;4994120;28;20342;-72
2020/12/23 12:38:54;;;;;;;12.07;5.28;;;8.70;1.00;;;;;;4997974;28;20981;-70
2020/12/23 12:41:25;;;;;;;9.13;4.72;;;8.60;1.00;;;;;;4988547;28;20303;-71
2020/12/23 12:43:51;;;;;;;9.60;5.00;;;8.50;1.00;;;;;;4987364;28;20251;-70
2020/12/23 12:46:18;;;;;;;20.52;5.55;;;8.60;1.00;;;;;;4993280;28;20339;-69
2020/12/23 12:48:45;;;;;;;11.02;5.25;;;8.60;1.00;;;;;;4987240;28;20334;-70
2020/12/23 12:51:11;;;;;;;8.18;4.90;;;8.60;1.00;;;;;;4994609;28;20250;-70
2020/12/23 12:53:37;;;;;;;6.32;4.85;;;8.70;1.00;;;;;;4988888;28;20230;-70
2020/12/23 12:56:03;;;;;;;11.68;4.70;;;8.70;1.00;;;;;;4982736;28;20225;-70
2020/12/23 12:58:30;;;;;;;11.82;5.18;;;8.70;1.00;;;;;;4989363;28;20227;-69
2020/12/23 13:00:56;;;;;;;16.27;5.65;;;8.70;1.00;;;;;;4995283;28;20223;-71
2020/12/23 13:03:22;;;;;;;13.43;5.88;;;8.80;1.00;;;;;;4993215;28;20226;-70
2020/12/23 13:05:51;;;;;;;11.57;6.35;;;8.80;1.00;;;;;;4989109;28;20271;-69